Time;durP1;ratioP1;P1;durP2;ratioP2;P2;SDS_P1;SDS_P2;PMS_P1;PMS_P2;Temp;Humidity;BMP_temperature;BMP_pressure;BME280_temperature;BME280_humidity;BME280_pressure;Samples;Min_cycle;Max_cycle;Signal;HPM_P1;HPM_P2
2023/04/19 00:01:01;;;;;;;14.57;8.70;;;;;;;;;;10312050;28;20027;-92
2023/04/19 00:12:02;;;;;;;13.82;8.75;;;;;;;;;;10362530;28;20353;-85
2023/04/19 00:17:12;;;;;;;15.50;9.85;;;;;;;;;;10347106;28;20061;-88
2023/04/19 00:22:14;;;;;;;12.93;8.45;;;;;;;;;;10354674;28;20046;-92
2023/04/19 00:27:30;;;;;;;15.70;8.93;;;;;;;;;;10528937;23;20043;-84
2023/04/19 00:32:32;;;;;;;16.42;9.70;;;;;;;;;;10319255;28;20035;-86
2023/04/19 00:37:44;;;;;;;;;;;;;;;;;;10337804;28;20050;-87
2023/04/19 00:43:41;;;;;;;18.50;9.77;;;;;;;;;;10333615;28;19922;-88
2023/04/19 00:48:45;;;;;;;13.50;8.70;;;;;;;;;;10311877;28;20041;-89
2023/04/19 01:17:22;;;;;;;15.85;9.27;;;;;;;;;;10351417;28;20492;-86
2023/04/19 01:22:33;;;;;;;14.85;8.75;;;;;;;;;;10327454;28;20078;-84
2023/04/19 01:27:34;;;;;;;13.00;8.15;;;;;;;;;;10340902;28;20050;-88
2023/04/19 01:32:35;;;;;;;14.15;9.27;;;;;;;;;;10353735;28;20054;-88
2023/04/19 01:37:36;;;;;;;14.10;8.73;;;;;;;;;;10367887;28;20042;-87
2023/04/19 01:42:38;;;;;;;19.33;11.10;;;;;;;;;;10350555;28;20058;-84
2023/04/19 01:47:42;;;;;;;17.80;9.68;;;;;;;;;;10323879;28;20046;-84
2023/04/19 01:52:42;;;;;;;15.23;8.27;;;;;;;;;;10304940;28;20046;-81
2023/04/19 01:57:46;;;;;;;15.15;9.57;;;;;;;;;;10328782;28;20517;-92
2023/04/19 02:02:49;;;;;;;15.30;8.65;;;;;;;;;;10320569;28;20066;-86
2023/04/19 02:24:01;;;;;;;14.57;9.90;;;;;;;;;;10306386;28;20046;-90
2023/04/19 02:29:01;;;;;;;15.98;9.50;;;;;;;;;;10332766;28;20115;-89
2023/04/19 02:34:02;;;;;;;15.52;9.90;;;;;;;;;;10361715;28;20030;-92
2023/04/19 02:39:07;;;;;;;14.25;8.90;;;;;;;;;;10304825;28;21066;-86
2023/04/19 02:44:12;;;;;;;15.88;9.48;;;;;;;;;;10356519;28;20055;-88
2023/04/19 02:49:14;;;;;;;15.15;9.55;;;;;;;;;;10359447;28;20033;-85
2023/04/19 02:54:16;;;;;;;16.42;9.32;;;;;;;;;;10370136;28;20113;-85
2023/04/19 02:59:23;;;;;;;17.55;10.57;;;;;;;;;;10423375;23;20054;-84
2023/04/19 03:09:41;;;;;;;16.55;9.70;;;;;;;;;;10355379;28;20046;-87
2023/04/19 03:14:42;;;;;;;14.27;8.93;;;;;;;;;;10342286;28;20030;-87
2023/04/19 03:19:45;;;;;;;16.30;9.23;;;;;;;;;;10348169;28;20050;-89
2023/04/19 03:25:12;;;;;;;19.20;10.90;;;;;;;;;;10303284;28;20027;-91
2023/04/19 03:30:25;;;;;;;16.45;10.13;;;;;;;;;;10419414;23;20141;-89
2023/04/19 03:35:51;;;;;;;18.52;10.95;;;;;;;;;;10343480;28;20039;-89
2023/04/19 03:40:56;;;;;;;15.15;9.02;;;;;;;;;;10351963;28;20045;-89
2023/04/19 03:46:01;;;;;;;16.10;9.77;;;;;;;;;;10323113;28;20058;-83
2023/04/19 03:51:03;;;;;;;12.80;8.63;;;;;;;;;;10301854;28;20092;-83
2023/04/19 03:56:08;;;;;;;15.40;9.85;;;;;;;;;;10312027;28;20050;-84
2023/04/19 04:01:32;;;;;;;15.23;9.13;;;;;;;;;;10295097;28;20057;-84
2023/04/19 04:06:34;;;;;;;12.35;8.15;;;;;;;;;;10274273;28;20778;-85
2023/04/19 04:11:35;;;;;;;15.95;9.57;;;;;;;;;;10303528;28;20449;-88
2023/04/19 04:16:39;;;;;;;16.95;9.73;;;;;;;;;;10322295;28;20051;-86
2023/04/19 04:21:41;;;;;;;14.02;9.38;;;;;;;;;;10304054;28;20058;-89
2023/04/19 04:26:50;;;;;;;14.63;9.05;;;;;;;;;;10311315;28;20038;-93
2023/04/19 04:32:00;;;;;;;;;;;;;;;;;;10288831;28;20055;-84
2023/04/19 04:37:07;;;;;;;17.77;9.93;;;;;;;;;;10310036;28;19956;-83
2023/04/19 04:42:09;;;;;;;20.45;10.43;;;;;;;;;;10325251;28;20089;-85
2023/04/19 04:47:12;;;;;;;18.13;10.65;;;;;;;;;;10337910;28;20050;-85
2023/04/19 04:52:26;;;;;;;20.33;12.07;;;;;;;;;;10304100;28;20050;-86
2023/04/19 04:57:43;;;;;;;22.00;13.13;;;;;;;;;;10343183;28;20067;-82
2023/04/19 05:02:51;;;;;;;20.60;12.00;;;;;;;;;;10341193;28;20045;-82
2023/04/19 05:07:52;;;;;;;21.75;13.13;;;;;;;;;;10341159;28;20043;-82
2023/04/19 05:12:54;;;;;;;21.35;12.27;;;;;;;;;;10315813;28;20050;-85
2023/04/19 05:18:02;;;;;;;19.77;11.05;;;;;;;;;;10304982;28;20070;-85
2023/04/19 05:23:03;;;;;;;18.95;11.80;;;;;;;;;;10334200;28;20325;-86
2023/04/19 05:28:10;;;;;;;19.77;12.38;;;;;;;;;;10303196;28;20142;-83
2023/04/19 05:33:22;;;;;;;19.30;12.07;;;;;;;;;;10296872;28;20046;-84
2023/04/19 05:38:30;;;;;;;20.17;12.48;;;;;;;;;;10314933;28;20037;-85
2023/04/19 05:43:36;;;;;;;21.55;13.60;;;;;;;;;;10286791;28;20053;-84
2023/04/19 05:48:45;;;;;;;21.33;12.63;;;;;;;;;;10333979;28;20046;-88
2023/04/19 05:54:43;;;;;;;;;;;;;;;;;;;;;
2023/04/19 06:00:04;;;;;;;;;;;;;;;;;;;;;
2023/04/19 06:05:15;;;;;;;21.60;13.13;;;;;;;;;;10339862;28;20062;-85
2023/04/19 06:10:42;;;;;;;18.85;12.75;;;;;;;;;;10293933;28;20042;-89
2023/04/19 06:15:44;;;;;;;18.05;12.10;;;;;;;;;;10331424;28;20102;-88
2023/04/19 06:20:54;;;;;;;17.40;10.93;;;;;;;;;;10321124;28;20834;-83
2023/04/19 06:25:55;;;;;;;18.77;12.07;;;;;;;;;;10313088;28;20145;-86
2023/04/19 06:30:56;;;;;;;22.15;13.68;;;;;;;;;;10286331;28;20043;-85
2023/04/19 06:35:59;;;;;;;23.23;13.15;;;;;;;;;;10319220;28;20065;-88
2023/04/19 06:41:05;;;;;;;25.92;14.43;;;;;;;;;;10325574;28;20418;-84
2023/04/19 06:46:06;;;;;;;20.83;12.77;;;;;;;;;;10322089;28;20046;-85
2023/04/19 06:51:07;;;;;;;24.80;13.60;;;;;;;;;;10322119;28;20128;-84
2023/04/19 06:56:12;;;;;;;27.02;15.43;;;;;;;;;;10325215;28;20054;-85
2023/04/19 07:01:14;;;;;;;25.67;15.35;;;;;;;;;;10365319;28;20026;-85
2023/04/19 07:06:14;;;;;;;27.83;15.88;;;;;;;;;;10365738;28;20098;-85
2023/04/19 07:11:16;;;;;;;22.90;15.38;;;;;;;;;;10351071;28;20069;-86
2023/04/19 07:16:19;;;;;;;25.23;15.05;;;;;;;;;;10300846;28;20102;-85
2023/04/19 07:21:19;;;;;;;25.42;15.95;;;;;;;;;;10306620;28;20058;-85
2023/04/19 07:26:22;;;;;;;28.40;16.33;;;;;;;;;;10333903;28;20078;-84
2023/04/19 07:31:25;;;;;;;29.35;17.35;;;;;;;;;;10307366;28;20034;-84
2023/04/19 07:36:25;;;;;;;30.63;18.20;;;;;;;;;;10286640;28;20046;-83
2023/04/19 07:41:25;;;;;;;28.20;18.92;;;;;;;;;;10273662;28;20053;-84
2023/04/19 07:46:27;;;;;;;31.37;18.60;;;;;;;;;;10321685;28;20060;-84
2023/04/19 07:51:27;;;;;;;32.00;18.60;;;;;;;;;;10342587;28;20281;-85
2023/04/19 07:56:28;;;;;;;34.83;19.13;;;;;;;;;;10313005;28;20062;-85
2023/04/19 08:01:29;;;;;;;30.67;17.80;;;;;;;;;;10315797;28;20058;-84
2023/04/19 08:06:31;;;;;;;29.05;17.95;;;;;;;;;;10347280;28;20066;-85
2023/04/19 08:11:31;;;;;;;30.75;18.48;;;;;;;;;;10353289;28;20038;-84
2023/04/19 08:16:33;;;;;;;30.77;18.35;;;;;;;;;;10312281;28;20064;-86
2023/04/19 08:21:34;;;;;;;23.80;15.38;;;;;;;;;;10315466;28;20137;-83
2023/04/19 08:26:35;;;;;;;25.13;16.08;;;;;;;;;;10283175;28;20549;-83
2023/04/19 08:31:38;;;;;;;29.80;18.15;;;;;;;;;;10325711;28;20067;-84
2023/04/19 08:36:40;;;;;;;24.23;16.77;;;;;;;;;;10360618;28;20065;-84
2023/04/19 08:41:48;;;;;;;23.02;16.52;;;;;;;;;;10341522;28;20066;-84
2023/04/19 08:46:51;;;;;;;25.02;16.23;;;;;;;;;;10325284;28;20058;-83
2023/04/19 08:51:53;;;;;;;20.13;14.65;;;;;;;;;;10298848;28;20061;-84
2023/04/19 08:57:00;;;;;;;19.63;12.70;;;;;;;;;;10298783;28;20119;-82
2023/04/19 09:02:08;;;;;;;;;;;;;;;;;;10338148;28;20050;-83
2023/04/19 09:07:21;;;;;;;17.65;11.55;;;;;;;;;;10354648;28;20026;-84
2023/04/19 09:12:25;;;;;;;20.23;12.95;;;;;;;;;;10350243;28;20031;-83
2023/04/19 09:17:26;;;;;;;14.70;10.68;;;;;;;;;;10336570;28;20042;-83
2023/04/19 09:22:28;;;;;;;15.50;11.10;;;;;;;;;;10314696;28;20051;-84
2023/04/19 09:27:33;;;;;;;15.98;10.93;;;;;;;;;;10311314;28;20551;-86
2023/04/19 09:32:47;;;;;;;17.98;11.00;;;;;;;;;;10290737;28;20050;-83
2023/04/19 09:38:04;;;;;;;15.32;9.65;;;;;;;;;;10290198;28;20140;-84
2023/04/19 09:43:04;;;;;;;16.70;10.57;;;;;;;;;;10307757;28;20407;-84
2023/04/19 09:48:06;;;;;;;14.27;9.95;;;;;;;;;;10300047;28;20065;-83
2023/04/19 09:53:09;;;;;;;15.38;10.07;;;;;;;;;;10305797;28;20113;-83
2023/04/19 09:58:10;;;;;;;15.85;9.32;;;;;;;;;;10339176;28;20064;-83
2023/04/19 10:03:11;;;;;;;14.02;8.75;;;;;;;;;;10371166;28;20352;-84
2023/04/19 10:08:13;;;;;;;13.15;9.10;;;;;;;;;;10293218;28;20480;-85
2023/04/19 10:13:22;;;;;;;13.43;9.60;;;;;;;;;;10284951;28;20054;-85
2023/04/19 10:18:25;;;;;;;13.25;8.85;;;;;;;;;;10284045;28;20050;-83
2023/04/19 10:23:28;;;;;;;15.18;10.13;;;;;;;;;;10325415;28;20055;-83
2023/04/19 10:28:30;;;;;;;12.05;8.38;;;;;;;;;;10313371;28;20054;-83
2023/04/19 10:33:43;;;;;;;13.75;9.32;;;;;;;;;;10343540;28;20046;-83
2023/04/19 10:38:48;;;;;;;14.77;8.68;;;;;;;;;;10329673;28;20275;-83
2023/04/19 10:43:58;;;;;;;8.77;6.30;;;;;;;;;;10331824;28;20098;-83
2023/04/19 10:49:02;;;;;;;8.35;6.25;;;;;;;;;;10313730;28;20042;-85
2023/04/19 10:54:22;;;;;;;7.80;6.07;;;;;;;;;;10304490;28;20523;-84
2023/04/19 10:59:23;;;;;;;8.52;6.13;;;;;;;;;;10310208;28;20117;-87
2023/04/19 11:04:36;;;;;;;8.48;6.85;;;;;;;;;;10325945;28;20498;-82
2023/04/19 11:09:41;;;;;;;8.93;6.63;;;;;;;;;;10333897;28;20136;-83
2023/04/19 11:15:01;;;;;;;9.43;6.93;;;;;;;;;;10350767;28;20055;-85
2023/04/19 11:20:13;;;;;;;7.57;6.10;;;;;;;;;;10327606;28;20038;-84
2023/04/19 11:25:20;;;;;;;7.15;5.60;;;;;;;;;;10333726;28;20161;-85
2023/04/19 11:30:29;;;;;;;6.57;5.43;;;;;;;;;;10341467;28;20040;-84
2023/04/19 11:35:34;;;;;;;6.70;4.63;;;;;;;;;;10341119;28;20116;-83
2023/04/19 11:40:36;;;;;;;6.47;4.75;;;;;;;;;;10348920;28;20074;-84
2023/04/19 11:46:03;;;;;;;6.45;4.70;;;;;;;;;;10349640;28;20147;-84
2023/04/19 11:51:04;;;;;;;5.30;4.28;;;;;;;;;;10341457;28;20030;-84
2023/04/19 11:56:06;;;;;;;4.97;3.78;;;;;;;;;;10360741;28;20094;-84
2023/04/19 12:01:08;;;;;;;5.25;3.35;;;;;;;;;;10348676;23;20067;-85
2023/04/19 12:06:12;;;;;;;3.85;2.28;;;;;;;;;;10303487;28;20112;-84
2023/04/19 12:11:17;;;;;;;2.97;2.15;;;;;;;;;;10346503;28;20158;-85
2023/04/19 12:16:26;;;;;;;2.45;2.25;;;;;;;;;;10336062;28;20046;-86
2023/04/19 12:21:30;;;;;;;2.28;2.05;;;;;;;;;;10320423;28;20107;-85
2023/04/19 12:26:31;;;;;;;2.60;2.40;;;;;;;;;;10319371;28;20133;-85
2023/04/19 12:31:32;;;;;;;2.05;1.73;;;;;;;;;;10372415;28;20034;-84
2023/04/19 12:36:34;;;;;;;2.95;2.10;;;;;;;;;;10345179;28;20056;-86
2023/04/19 12:41:37;;;;;;;2.90;2.38;;;;;;;;;;10369204;28;20037;-84
2023/04/19 12:46:40;;;;;;;3.13;2.17;;;;;;;;;;10371045;28;20061;-83
2023/04/19 12:51:42;;;;;;;3.08;2.15;;;;;;;;;;10356158;28;20048;-83
2023/04/19 12:56:43;;;;;;;2.72;2.00;;;;;;;;;;10344129;28;20058;-84
2023/04/19 13:01:44;;;;;;;2.42;1.70;;;;;;;;;;10363640;28;20050;-85
2023/04/19 13:06:45;;;;;;;3.47;1.88;;;;;;;;;;10341886;28;20086;-83
2023/04/19 13:11:45;;;;;;;1.92;1.60;;;;;;;;;;10340114;28;20031;-84
2023/04/19 13:16:47;;;;;;;2.97;1.90;;;;;;;;;;10373167;28;20085;-83
2023/04/19 13:21:48;;;;;;;2.13;1.80;;;;;;;;;;10383056;28;20388;-84
2023/04/19 13:26:48;;;;;;;2.45;1.73;;;;;;;;;;10352656;28;20058;-83
2023/04/19 13:31:49;;;;;;;2.47;2.00;;;;;;;;;;10321331;28;20066;-81
2023/04/19 13:36:50;;;;;;;3.75;2.28;;;;;;;;;;10370118;28;20050;-85
2023/04/19 13:42:13;;;;;;;3.20;2.42;;;;;;;;;;10371239;28;20430;-88
2023/04/19 13:47:17;;;;;;;3.70;3.22;;;;;;;;;;10338102;28;20074;-84
2023/04/19 13:52:19;;;;;;;4.90;2.47;;;;;;;;;;10367276;28;20059;-83
2023/04/19 13:57:19;;;;;;;3.63;2.90;;;;;;;;;;10362274;28;20117;-85
2023/04/19 14:02:21;;;;;;;3.58;3.00;;;;;;;;;;10319367;28;20042;-85
2023/04/19 14:07:21;;;;;;;4.07;2.75;;;;;;;;;;10306797;28;20056;-86
2023/04/19 14:12:22;;;;;;;4.97;3.03;;;;;;;;;;10322342;28;20043;-85
2023/04/19 14:17:24;;;;;;;3.67;2.63;;;;;;;;;;10349468;28;20124;-84
2023/04/19 14:22:24;;;;;;;5.03;3.00;;;;;;;;;;10343087;28;20301;-85
2023/04/19 14:27:25;;;;;;;5.00;3.25;;;;;;;;;;10323633;28;20050;-81
2023/04/19 14:32:27;;;;;;;2.65;2.45;;;;;;;;;;10315655;28;20053;-82
2023/04/19 14:37:29;;;;;;;3.15;2.40;;;;;;;;;;10329371;28;20054;-84
2023/04/19 14:42:29;;;;;;;4.65;2.58;;;;;;;;;;10320408;28;20046;-83
2023/04/19 14:47:31;;;;;;;3.50;2.72;;;;;;;;;;10338059;28;20150;-83
2023/04/19 14:52:33;;;;;;;4.10;2.97;;;;;;;;;;10310331;28;20141;-84
2023/04/19 14:57:35;;;;;;;5.03;2.72;;;;;;;;;;10317310;28;20135;-84
2023/04/19 15:02:38;;;;;;;2.33;2.13;;;;;;;;;;10330749;28;20070;-85
2023/04/19 15:07:38;;;;;;;4.60;2.38;;;;;;;;;;10331957;28;20054;-85
2023/04/19 15:12:39;;;;;;;3.30;2.23;;;;;;;;;;10354044;28;20014;-85
2023/04/19 15:17:40;;;;;;;2.40;2.17;;;;;;;;;;10291402;28;20133;-77
2023/04/19 15:22:40;;;;;;;3.95;2.13;;;;;;;;;;10305403;28;20057;-77
2023/04/19 15:27:41;;;;;;;3.03;2.28;;;;;;;;;;10298111;28;20096;-75
2023/04/19 15:32:42;;;;;;;3.50;2.80;;;;;;;;;;10303003;28;20136;-78
2023/04/19 15:37:47;;;;;;;5.22;2.83;;;;;;;;;;10306591;28;20046;-81
2023/04/19 15:42:47;;;;;;;9.70;6.63;;;;;;;;;;10349616;28;20048;-80
2023/04/19 15:47:49;;;;;;;4.18;2.53;;;;;;;;;;10350270;28;20804;-81
2023/04/19 15:52:49;;;;;;;5.25;3.97;;;;;;;;;;10315075;28;20150;-83
2023/04/19 15:57:50;;;;;;;14.27;7.40;;;;;;;;;;10318070;28;20046;-84
2023/04/19 16:02:53;;;;;;;3.00;2.13;;;;;;;;;;10318843;28;20301;-86
2023/04/19 16:08:01;;;;;;;3.38;2.30;;;;;;;;;;10339609;28;20049;-87
2023/04/19 16:13:02;;;;;;;3.63;2.45;;;;;;;;;;10316138;28;20182;-86
2023/04/19 16:18:03;;;;;;;2.88;2.42;;;;;;;;;;10346796;28;20099;-87
2023/04/19 16:23:03;;;;;;;3.72;2.30;;;;;;;;;;10338100;28;20574;-84
2023/04/19 16:28:05;;;;;;;3.55;2.58;;;;;;;;;;10319580;28;20045;-85
2023/04/19 16:33:08;;;;;;;3.33;2.60;;;;;;;;;;10303415;28;20376;-85
2023/04/19 16:38:08;;;;;;;4.93;2.90;;;;;;;;;;10340431;28;20155;-86
2023/04/19 16:43:14;;;;;;;6.03;3.05;;;;;;;;;;10338709;28;20058;-85
2023/04/19 16:48:16;;;;;;;4.45;3.00;;;;;;;;;;10556339;23;20063;-85
2023/04/19 16:53:16;;;;;;;4.70;3.17;;;;;;;;;;10295895;28;20110;-85
2023/04/19 16:58:18;;;;;;;4.63;3.33;;;;;;;;;;10296941;28;20604;-88
2023/04/19 17:03:19;;;;;;;3.92;3.13;;;;;;;;;;10306955;28;20051;-83
2023/04/19 17:08:22;;;;;;;4.07;3.03;;;;;;;;;;10385863;23;20050;-86
2023/04/19 17:13:25;;;;;;;4.10;3.10;;;;;;;;;;10964877;23;20089;-85
2023/04/19 17:18:25;;;;;;;4.88;3.58;;;;;;;;;;10313818;28;20027;-87
2023/04/19 17:23:26;;;;;;;4.07;3.55;;;;;;;;;;10710435;23;20058;-87
2023/04/19 17:28:30;;;;;;;5.85;3.60;;;;;;;;;;10388163;23;20050;-84
2023/04/19 17:33:34;;;;;;;5.57;3.85;;;;;;;;;;10697369;23;21765;-87
2023/04/19 17:38:36;;;;;;;5.93;3.22;;;;;;;;;;11186556;23;20045;-86
2023/04/19 17:43:43;;;;;;;5.10;3.28;;;;;;;;;;11099698;23;20047;-89
2023/04/19 17:48:53;;;;;;;4.57;3.35;;;;;;;;;;10481175;23;20093;-86
2023/04/19 17:59:04;;;;;;;4.03;3.33;;;;;;;;;;10205465;28;20035;-85
2023/04/19 18:04:04;;;;;;;4.43;3.17;;;;;;;;;;10410166;23;20051;-82
2023/04/19 18:09:06;;;;;;;5.03;3.35;;;;;;;;;;10339886;28;20030;-84
2023/04/19 18:35:34;;;;;;;4.60;3.13;;;;;;;;;;10306070;28;20042;-86
2023/04/19 18:40:35;;;;;;;3.88;2.80;;;;;;;;;;10311937;28;20396;-87
2023/04/19 18:51:08;;;;;;;4.28;3.42;;;;;;;;;;10478310;23;20059;-88
2023/04/19 19:01:56;;;;;;;5.95;4.45;;;;;;;;;;10408355;23;20058;-89
2023/04/19 19:06:57;;;;;;;4.00;3.60;;;;;;;;;;10354463;28;20099;-86
2023/04/19 19:11:59;;;;;;;5.85;4.07;;;;;;;;;;10369088;28;20037;-86
2023/04/19 19:17:01;;;;;;;4.82;3.72;;;;;;;;;;10502066;23;20085;-89
2023/04/19 19:22:02;;;;;;;4.47;3.72;;;;;;;;;;10432260;23;20034;-90
2023/04/19 19:27:06;;;;;;;5.37;4.00;;;;;;;;;;10400630;28;20034;-88
2023/04/19 19:32:13;;;;;;;5.45;4.10;;;;;;;;;;10708241;23;20361;-84
2023/04/19 19:37:15;;;;;;;5.15;3.95;;;;;;;;;;10504705;23;20043;-86
2023/04/19 19:53:04;;;;;;;12.38;4.38;;;;;;;;;;10294142;28;20937;-84
2023/04/19 19:58:07;;;;;;;5.35;3.75;;;;;;;;;;10307013;28;20042;-88
2023/04/19 20:03:08;;;;;;;4.97;4.00;;;;;;;;;;10352954;23;20054;-87
2023/04/19 20:08:10;;;;;;;5.68;4.07;;;;;;;;;;10379887;28;20050;-88
2023/04/19 20:13:11;;;;;;;7.57;4.45;;;;;;;;;;10381144;28;20078;-86
2023/04/19 20:39:52;;;;;;;5.22;3.75;;;;;;;;;;10543801;23;20050;-86
2023/04/19 20:44:53;;;;;;;5.83;3.90;;;;;;;;;;10386939;28;20026;-87
2023/04/19 20:50:00;;;;;;;6.20;4.00;;;;;;;;;;10361502;28;20523;-87
2023/04/19 20:55:01;;;;;;;5.47;4.45;;;;;;;;;;10341204;28;20050;-87
2023/04/19 21:00:06;;;;;;;6.93;4.53;;;;;;;;;;10346440;28;20046;-85
2023/04/19 21:05:17;;;;;;;8.30;4.50;;;;;;;;;;10858938;23;20039;-87
2023/04/19 21:10:20;;;;;;;6.65;4.50;;;;;;;;;;10328414;23;20039;-89
2023/04/19 21:15:24;;;;;;;5.47;4.70;;;;;;;;;;10315771;28;20046;-89
2023/04/19 21:20:26;;;;;;;6.57;4.25;;;;;;;;;;10291287;28;20058;-85
2023/04/19 21:25:29;;;;;;;6.70;5.45;;;;;;;;;;10404345;23;20043;-91
2023/04/19 21:30:41;;;;;;;5.65;4.90;;;;;;;;;;10306219;28;20069;-86
2023/04/19 21:36:10;;;;;;;6.17;5.00;;;;;;;;;;10324141;28;20063;-85
2023/04/19 21:41:32;;;;;;;7.15;5.35;;;;;;;;;;10324000;28;20035;-87
2023/04/19 21:46:37;;;;;;;7.03;5.28;;;;;;;;;;10323368;28;20062;-86
2023/04/19 21:51:38;;;;;;;5.80;4.65;;;;;;;;;;10384789;23;20050;-84
2023/04/19 21:56:47;;;;;;;7.75;5.57;;;;;;;;;;10390311;23;20105;-86
2023/04/19 22:02:47;;;;;;;7.38;5.47;;;;;;;;;;10758043;23;20419;-87
2023/04/19 22:07:57;;;;;;;7.28;5.40;;;;;;;;;;10344801;23;20034;-86
2023/04/19 22:18:28;;;;;;;8.38;5.85;;;;;;;;;;11051691;23;20119;-88
2023/04/19 22:23:39;;;;;;;9.95;6.55;;;;;;;;;;10331225;23;20045;-88
2023/04/19 22:28:44;;;;;;;9.32;6.22;;;;;;;;;;10352607;28;20031;-87
2023/04/19 22:33:50;;;;;;;9.48;6.93;;;;;;;;;;10350601;28;20027;-85
2023/04/19 22:38:51;;;;;;;9.32;6.75;;;;;;;;;;10342476;28;20058;-85
2023/04/19 22:43:59;;;;;;;9.55;7.13;;;;;;;;;;10320217;28;20098;-88
2023/04/19 23:05:48;;;;;;;8.65;6.85;;;;;;;;;;10349787;28;20082;-87
2023/04/19 23:10:50;;;;;;;11.18;7.70;;;;;;;;;;10311372;28;20138;-87
2023/04/19 23:16:28;;;;;;;9.95;7.28;;;;;;;;;;10306433;28;20080;-86
2023/04/19 23:21:30;;;;;;;10.18;7.80;;;;;;;;;;10275753;28;20301;-88
2023/04/19 23:26:40;;;;;;;9.90;8.20;;;;;;;;;;10286390;28;20055;-87
2023/04/19 23:31:49;;;;;;;13.13;9.52;;;;;;;;;;10686035;23;20168;-86
2023/04/19 23:36:59;;;;;;;10.10;7.68;;;;;;;;;;10305682;28;20050;-83
2023/04/19 23:42:01;;;;;;;10.43;7.97;;;;;;;;;;10202988;28;3029205;-82
2023/04/19 23:47:02;;;;;;;9.90;7.40;;;;;;;;;;10324334;28;20085;-85
2023/04/19 23:52:05;;;;;;;10.18;7.88;;;;;;;;;;10343277;28;20205;-83
2023/04/19 23:57:07;;;;;;;11.73;7.55;;;;;;;;;;10321884;28;20034;-84
